Hauptseite
METAR-TAF:

METAR-TAF

Flughäfen :

Fliegerhorst Faßberg

Faßberg, Deutschland

Breite: 52-55N, Länge: 010-11E, Höhe: 75 m

Beobachtung

Neuester Wetterbericht von vor 59 Minuten, um 18:20 UTC
Wind 1 kt aus Südwest
Temperatur 21°C
Luftfeuchtigkeit 56%
Luftdruck 1015 hPa
Sichtweite 10 km oder mehr
Leicht bewölkt in der Höhe von 6000 ft

METAR: ETHS 191820Z 23001KT 9999 FEW060 21/12 Q1015 BLU+BLU+

Zeit: 21:19 (19:19 UTC)

Prognose

Neuester Wetterbericht von vor 2 Stunden und 58 Minuten, um 16:21 UTC
Gültige Prognose vom 19 um 17 UTC bis 20 um 02 UTC
Wind 8 kt aus West/Südwest
Sichtweite 10 km oder mehr
Aufgelockert bewölkt in der Höhe von 6000 ft
Durchbrochene Bewölkung in der Höhe von 35000 ft

TAF: ETHS 191621Z 1917/2002 24008KT 9999 NSW SCT060 BKN350

Wetterbeobachtungen und Prognosen von mehr als 4000 Flughäfen (METAR und TAF Bericht).

Die verfügbaren Stationen werden durch gelbe und rote Markierungen auf der Karte dargestellt.

Führen Sie die Maus auf sie, um den Namen der Station zu sehen.

Darauf klicken, um die Beobachtung von Wetterbeobachtungen und Prognosen zu sehen.

Um die Karte zu ändern : klicken Sie auf den grünen Tasten mit einem schwarzen Kreuz Zum Vergrößern, auf den grünen Button mit einem Gedankenstrich zu verkleinern, oder auf die grünen Pfeile für benachbarte Karten.


METAR-TAF: